createdAt,value
2018-12-04T00:00:52.728Z,99.99
2018-12-04T00:21:59.515Z,99.99
2018-12-04T00:23:06.981Z,99.62
2018-12-04T00:24:52.680Z,99.66
2018-12-04T00:25:52.679Z,99.33
2018-12-04T00:27:45.817Z,99.66
2018-12-04T00:28:45.818Z,99.99
2018-12-04T00:29:45.831Z,99.99
2018-12-04T00:30:45.848Z,99.99
2018-12-04T00:31:45.871Z,99.85
2018-12-04T00:32:45.883Z,98.95
2018-12-04T00:33:45.901Z,97.94
2018-12-04T00:34:46.039Z,97.85
2018-12-04T00:35:45.930Z,97.47
2018-12-04T00:36:45.953Z,97.37
2018-12-04T00:37:45.973Z,98.80
2018-12-04T00:38:45.989Z,98.52
2018-12-04T00:39:46.027Z,97.85
2018-12-04T00:40:46.028Z,97.85
2018-12-04T00:41:46.043Z,97.18
2018-12-04T00:42:46.054Z,97.75
2018-12-04T00:43:46.077Z,99.19
2018-12-04T00:44:46.104Z,96.47
2018-12-04T00:45:46.115Z,96.32
2018-12-04T00:46:46.148Z,97.37
2018-12-04T00:47:46.151Z,97.94
2018-12-04T00:48:46.156Z,97.56
2018-12-04T00:49:46.176Z,98.85
2018-12-04T00:50:46.204Z,99.71
2018-12-04T00:51:46.221Z,99.62
2018-12-04T00:52:46.250Z,99.33
2018-12-04T00:53:46.242Z,98.75
2018-12-04T00:54:46.259Z,98.75
2018-12-04T00:55:46.278Z,99.43
2018-12-04T00:56:46.294Z,98.75
2018-12-04T00:57:46.316Z,98.94
2018-12-04T00:58:46.331Z,99.71
2018-12-04T00:59:46.352Z,99.71
2018-12-04T01:00:46.367Z,99.90
2018-12-04T01:01:46.400Z,99.33
2018-12-04T01:02:46.493Z,99.33
2018-12-04T01:03:46.431Z,99.04
2018-12-04T01:04:46.442Z,97.85
2018-12-04T01:05:46.460Z,98.37
2018-12-04T01:06:46.472Z,98.28
2018-12-04T01:07:46.493Z,97.71
2018-12-04T01:08:46.517Z,96.89
2018-12-04T01:09:46.521Z,97.28
2018-12-04T01:10:46.538Z,97.85
2018-12-04T01:11:46.559Z,96.80
2018-12-04T01:12:46.586Z,96.56
2018-12-04T01:13:46.591Z,96.61
2018-12-04T01:14:46.605Z,95.51
2018-12-04T01:15:46.625Z,95.46
2018-12-04T01:16:46.644Z,95.75
2018-12-04T01:17:46.664Z,96.22
2018-12-04T01:18:46.677Z,96.22
2018-12-04T01:19:46.746Z,96.46
2018-12-04T01:20:46.715Z,96.56
2018-12-04T01:21:46.738Z,97.03
2018-12-04T01:22:46.750Z,96.27
2018-12-04T01:23:46.765Z,96.27
2018-12-04T01:24:46.795Z,95.75
2018-12-04T01:25:46.811Z,94.89
2018-12-04T01:26:46.817Z,94.79
2018-12-04T01:27:46.836Z,95.51
2018-12-04T01:28:46.857Z,95.27
2018-12-04T01:29:46.875Z,95.27
2018-12-04T01:30:46.884Z,95.65
2018-12-04T01:31:46.904Z,95.46
2018-12-04T01:32:46.920Z,96.46
2018-12-04T01:33:46.949Z,96.66
2018-12-04T01:34:46.955Z,96.17
2018-12-04T01:35:46.979Z,96.46
2018-12-04T01:36:46.993Z,96.66
2018-12-04T01:37:47.012Z,96.08
2018-12-04T01:38:47.032Z,96.37
2018-12-04T01:39:47.042Z,97.32
2018-12-04T01:40:47.064Z,95.84
2018-12-04T01:41:47.187Z,95.51
2018-12-04T01:42:47.098Z,95.41
2018-12-04T01:43:47.148Z,95.65
2018-12-04T01:44:47.131Z,95.51
2018-12-04T01:45:47.150Z,96.66
2018-12-04T01:46:47.164Z,97.03
2018-12-04T01:47:47.221Z,96.27
2018-12-04T01:48:47.199Z,95.65
2018-12-04T01:49:47.229Z,95.98
2018-12-04T01:50:47.232Z,95.79
2018-12-04T01:51:47.252Z,96.46
2018-12-04T01:52:47.277Z,97.71
2018-12-04T01:53:47.289Z,97.23
2018-12-04T01:54:47.304Z,96.75
2018-12-04T01:55:47.332Z,96.84
2018-12-04T01:56:47.336Z,97.80
2018-12-04T01:57:47.359Z,98.85
2018-12-04T01:58:47.383Z,98.08
2018-12-04T01:59:47.427Z,97.94
2018-12-04T02:00:47.427Z,98.08
2018-12-04T02:01:47.424Z,97.13
2018-12-04T02:02:47.467Z,95.98
2018-12-04T02:03:47.461Z,95.98
2018-12-04T02:04:47.768Z,95.61
2018-12-04T02:05:47.496Z,95.98
2018-12-04T02:06:47.509Z,96.56
2018-12-04T02:07:47.527Z,95.61
2018-12-04T02:08:47.545Z,96.46
2018-12-04T02:09:47.563Z,95.51
2018-12-04T02:10:47.639Z,96.37
2018-12-04T02:11:47.680Z,95.98
2018-12-04T02:12:47.620Z,95.65
2018-12-04T02:13:47.631Z,96.17
2018-12-04T02:14:47.649Z,95.41
2018-12-04T02:15:47.681Z,95.98
2018-12-04T02:16:47.683Z,97.03
2018-12-04T02:17:47.704Z,97.61
2018-12-04T02:18:47.728Z,98.13
2018-12-04T02:19:47.737Z,97.89
2018-12-04T02:20:47.760Z,96.84
2018-12-04T02:21:47.773Z,96.56
2018-12-04T02:22:47.789Z,96.37
2018-12-04T02:23:47.805Z,95.70
2018-12-04T02:24:47.833Z,95.70
2018-12-04T02:25:47.842Z,95.32
2018-12-04T02:26:47.858Z,95.41
2018-12-04T02:27:47.873Z,95.89
2018-12-04T02:28:47.906Z,95.61
2018-12-04T02:29:47.906Z,95.98
2018-12-04T02:30:47.926Z,95.98
2018-12-04T02:31:47.954Z,96.56
2018-12-04T02:32:47.964Z,97.80
2018-12-04T02:33:48.005Z,97.80
2018-12-04T02:34:47.995Z,97.42
2018-12-04T02:35:48.042Z,97.80
2018-12-04T02:36:48.030Z,97.80
2018-12-04T02:37:48.045Z,97.42
2018-12-04T02:38:48.065Z,97.23
2018-12-04T02:39:48.152Z,97.71
2018-12-04T02:40:48.100Z,97.80
2018-12-04T02:41:48.120Z,98.23
2018-12-04T02:42:48.136Z,98.28
2018-12-04T02:43:48.152Z,98.18
2018-12-04T02:44:48.174Z,98.32
2018-12-04T02:45:48.184Z,98.80
2018-12-04T02:46:48.202Z,97.61
2018-12-04T02:47:48.230Z,96.84
2018-12-04T02:48:48.237Z,96.84
2018-12-04T02:49:48.260Z,96.84
2018-12-04T02:50:48.279Z,97.32
2018-12-04T02:51:48.290Z,96.84
2018-12-04T02:52:48.311Z,97.52
2018-12-04T02:53:48.323Z,97.23
2018-12-04T02:54:48.350Z,96.66
2018-12-04T02:55:48.365Z,95.98
2018-12-04T02:56:48.390Z,95.41
2018-12-04T02:57:48.401Z,94.31
2018-12-04T02:58:48.414Z,94.51
2018-12-04T02:59:48.430Z,94.65
2018-12-04T03:00:48.447Z,95.03
2018-12-04T03:01:48.469Z,95.70
2018-12-04T03:02:48.487Z,95.12
2018-12-04T03:03:48.586Z,95.61
2018-12-04T03:04:48.517Z,94.84
2018-12-04T03:05:48.536Z,94.84
2018-12-04T03:06:48.551Z,95.32
2018-12-04T03:07:48.579Z,95.32
2018-12-04T03:08:48.605Z,94.55
2018-12-04T03:09:48.604Z,95.32
2018-12-04T03:10:48.620Z,95.03
2018-12-04T03:11:48.631Z,95.22
2018-12-04T03:12:48.653Z,95.41
2018-12-04T03:13:48.671Z,95.70
2018-12-04T03:14:48.693Z,95.98
2018-12-04T03:15:48.704Z,96.17
2018-12-04T03:16:48.732Z,95.79
2018-12-04T03:17:48.745Z,96.13
2018-12-04T03:18:48.846Z,95.51
2018-12-04T03:19:48.776Z,95.41
2018-12-04T03:20:48.838Z,95.12
2018-12-04T03:21:48.810Z,95.98
2018-12-04T03:22:48.827Z,95.79
2018-12-04T03:23:48.852Z,95.12
2018-12-04T03:24:48.858Z,95.51
2018-12-04T03:25:48.883Z,95.22
2018-12-04T03:26:48.903Z,95.94
2018-12-04T03:27:48.923Z,95.46
2018-12-04T03:28:48.931Z,95.32
2018-12-04T03:29:48.951Z,95.22
2018-12-04T03:30:49.004Z,95.79
2018-12-04T03:31:49.045Z,95.61
2018-12-04T03:32:49.015Z,95.61
2018-12-04T03:33:49.055Z,95.98
2018-12-04T03:34:49.045Z,95.32
2018-12-04T03:35:49.059Z,95.41
2018-12-04T03:36:49.078Z,95.03
2018-12-04T03:37:49.090Z,94.74
2018-12-04T03:38:49.105Z,94.93
2018-12-04T03:39:49.121Z,94.74
2018-12-04T03:40:49.141Z,94.74
2018-12-04T03:41:49.159Z,94.17
2018-12-04T03:42:49.173Z,94.27
2018-12-04T03:43:49.195Z,94.74
2018-12-04T03:44:49.209Z,95.17
2018-12-04T03:45:49.228Z,95.46
2018-12-04T03:46:49.243Z,95.51
2018-12-04T03:47:49.266Z,94.65
2018-12-04T03:48:49.362Z,94.60
2018-12-04T03:49:49.300Z,94.74
2018-12-04T03:50:49.325Z,94.93
2018-12-04T03:51:49.325Z,94.93
2018-12-04T03:52:49.359Z,94.93
2018-12-04T03:53:49.367Z,94.07
2018-12-04T03:54:49.386Z,94.03
2018-12-04T03:55:49.396Z,94.98
2018-12-04T03:56:49.414Z,95.32
2018-12-04T03:57:49.432Z,95.65
2018-12-04T03:58:49.448Z,95.32
2018-12-04T03:59:49.516Z,95.27
2018-12-04T04:00:49.492Z,95.41
2018-12-04T04:01:49.504Z,96.17
2018-12-04T04:02:49.522Z,95.89
2018-12-04T04:03:49.580Z,94.93
2018-12-04T04:04:49.554Z,94.65
2018-12-04T04:05:49.575Z,94.74
2018-12-04T04:06:49.590Z,94.74
2018-12-04T04:07:49.615Z,93.79
2018-12-04T04:08:49.632Z,93.98
2018-12-04T04:09:49.643Z,93.98
2018-12-04T04:10:49.665Z,93.88
2018-12-04T04:11:49.685Z,94.93
2018-12-04T04:12:49.696Z,94.93
2018-12-04T04:13:49.712Z,95.22
2018-12-04T04:14:49.728Z,96.13
2018-12-04T04:15:49.746Z,95.98
2018-12-04T04:16:49.853Z,96.17
2018-12-04T04:17:49.785Z,95.98
2018-12-04T04:18:49.800Z,96.56
2018-12-04T04:19:49.825Z,96.61
2018-12-04T04:20:49.834Z,95.89
2018-12-04T04:21:49.852Z,95.98
2018-12-04T04:22:49.876Z,95.98
2018-12-04T04:23:49.881Z,97.13
2018-12-04T04:24:49.899Z,97.47
2018-12-04T04:25:49.931Z,97.13
2018-12-04T04:26:49.937Z,97.08
2018-12-04T04:27:50.042Z,96.75
2018-12-04T04:28:49.970Z,96.75
2018-12-04T04:29:49.986Z,96.66
2018-12-04T04:30:50.009Z,96.84
2018-12-04T04:31:50.027Z,96.66
2018-12-04T04:32:50.037Z,97.47
2018-12-04T04:33:50.060Z,98.42
2018-12-04T04:34:50.097Z,98.52
2018-12-04T04:35:50.099Z,98.71
2018-12-04T04:36:50.115Z,98.13
2018-12-04T04:37:50.128Z,98.61
2018-12-04T04:38:50.151Z,98.13
2018-12-04T04:39:50.163Z,98.23
2018-12-04T04:40:50.285Z,97.75
2018-12-04T04:41:50.198Z,98.52
2018-12-04T04:42:50.209Z,98.52
2018-12-04T04:43:50.230Z,98.23
2018-12-04T04:44:50.248Z,98.42
2018-12-04T04:45:50.260Z,98.71
2018-12-04T04:46:50.284Z,98.18
2018-12-04T04:47:50.296Z,98.03
2018-12-04T04:48:50.313Z,98.57
2018-12-04T04:49:50.347Z,98.47
2018-12-04T04:50:50.350Z,98.28
2018-12-04T04:51:50.376Z,97.80
2018-12-04T04:52:50.386Z,96.94
2018-12-04T04:53:50.452Z,96.84
2018-12-04T04:54:50.432Z,97.13
2018-12-04T04:55:50.441Z,97.80
2018-12-04T04:56:50.466Z,97.89
2018-12-04T04:57:50.582Z,96.75
2018-12-04T04:58:50.489Z,95.89
2018-12-04T04:59:50.511Z,95.79
2018-12-04T05:00:50.525Z,95.32
2018-12-04T05:01:50.546Z,94.46
2018-12-04T05:02:50.557Z,95.70
2018-12-04T05:03:50.576Z,95.98
2018-12-04T05:04:50.601Z,96.08
2018-12-04T05:05:50.634Z,95.51
2018-12-04T05:06:50.626Z,95.22
2018-12-04T05:07:50.644Z,95.32
2018-12-04T05:08:50.662Z,95.03
2018-12-04T05:09:50.684Z,93.98
2018-12-04T05:10:50.708Z,94.65
2018-12-04T05:11:50.716Z,94.70
2018-12-04T05:12:50.730Z,94.93
2018-12-04T05:13:50.756Z,94.12
2018-12-04T05:14:50.764Z,93.88
2018-12-04T05:15:50.784Z,93.02
2018-12-04T05:16:50.803Z,92.64
2018-12-04T05:17:50.819Z,92.45
2018-12-04T05:18:50.836Z,92.07
2018-12-04T05:19:50.869Z,91.40
2018-12-04T05:20:50.877Z,92.16
2018-12-04T05:21:50.905Z,92.36
2018-12-04T05:22:50.922Z,92.16
2018-12-04T05:23:50.915Z,91.59
2018-12-04T05:24:50.939Z,90.92
2018-12-04T05:25:51.041Z,90.54
2018-12-04T05:26:50.971Z,90.25
2018-12-04T05:27:50.992Z,90.16
2018-12-04T05:28:51.006Z,89.59
2018-12-04T05:29:51.027Z,90.11
2018-12-04T05:30:51.045Z,91.21
2018-12-04T05:31:51.055Z,90.64
2018-12-04T05:32:51.073Z,90.73
2018-12-04T05:33:51.094Z,89.97
2018-12-04T05:34:51.118Z,90.25
2018-12-04T05:35:51.128Z,91.26
2018-12-04T05:36:51.273Z,91.26
2018-12-04T05:37:51.164Z,91.11
2018-12-04T05:38:51.172Z,91.07
2018-12-04T05:39:51.213Z,91.21
2018-12-04T05:40:51.213Z,91.11
2018-12-04T05:41:51.229Z,90.64
2018-12-04T05:42:51.245Z,90.83
2018-12-04T05:43:51.275Z,91.55
2018-12-04T05:44:51.284Z,91.26
2018-12-04T05:45:51.299Z,91.97
2018-12-04T05:46:51.322Z,91.21
2018-12-04T05:47:51.331Z,91.30
2018-12-04T05:48:51.349Z,90.35
2018-12-04T05:49:51.395Z,89.97
2018-12-04T05:50:51.387Z,90.64
2018-12-04T05:51:51.413Z,91.26
2018-12-04T05:52:51.418Z,90.92
2018-12-04T05:53:51.490Z,90.83
2018-12-04T05:54:51.519Z,91.21
2018-12-04T05:55:51.472Z,90.97
2018-12-04T05:56:51.486Z,91.55
2018-12-04T05:57:51.502Z,91.26
2018-12-04T05:58:51.526Z,91.36
2018-12-04T05:59:51.542Z,91.45
2018-12-04T06:00:51.556Z,91.64
2018-12-04T06:01:51.571Z,91.55
2018-12-04T06:02:51.618Z,91.11
2018-12-04T06:03:52.182Z,90.78
2018-12-04T06:04:51.671Z,91.55
2018-12-04T06:05:51.651Z,91.11
2018-12-04T06:06:51.656Z,90.92
2018-12-04T06:07:51.680Z,89.68
2018-12-04T06:08:51.720Z,89.97
2018-12-04T06:09:51.715Z,90.35
2018-12-04T06:10:51.732Z,90.06
2018-12-04T06:11:51.747Z,89.39
2018-12-04T06:12:51.783Z,88.39
2018-12-04T06:13:51.797Z,88.44
2018-12-04T06:14:51.799Z,88.34
2018-12-04T06:15:51.813Z,88.10
2018-12-04T06:16:51.834Z,88.06
2018-12-04T06:17:52.030Z,89.49
2018-12-04T06:18:51.876Z,88.58
2018-12-04T06:19:51.879Z,88.15
2018-12-04T06:20:51.906Z,88.73
2018-12-04T06:21:51.920Z,89.20
2018-12-04T06:22:51.929Z,88.73
2018-12-04T06:23:51.949Z,88.63
2018-12-04T06:24:51.966Z,89.20
2018-12-04T06:25:52.007Z,90.11
2018-12-04T06:26:52.004Z,90.16
2018-12-04T06:27:52.011Z,90.59
2018-12-04T06:28:52.041Z,90.88
2018-12-04T06:29:52.046Z,90.45
2018-12-04T06:30:52.076Z,89.25
2018-12-04T06:31:52.087Z,89.20
2018-12-04T06:32:52.132Z,90.45
2018-12-04T06:33:52.117Z,90.64
2018-12-04T06:34:52.201Z,89.97
2018-12-04T06:35:52.161Z,90.45
2018-12-04T06:36:52.168Z,89.87
2018-12-04T06:37:52.181Z,89.87
2018-12-04T06:38:52.208Z,89.87
2018-12-04T06:39:52.224Z,90.45
2018-12-04T06:40:52.231Z,91.21
2018-12-04T06:41:52.248Z,92.02
2018-12-04T06:42:52.266Z,91.50
2018-12-04T06:43:52.285Z,91.11
2018-12-04T06:44:52.301Z,90.78
2018-12-04T06:45:52.459Z,91.45
2018-12-04T06:46:52.340Z,92.41
2018-12-04T06:47:52.354Z,92.41
2018-12-04T06:48:52.364Z,92.41
2018-12-04T06:49:52.385Z,91.55
2018-12-04T06:50:52.399Z,91.07
2018-12-04T06:51:52.413Z,90.64
2018-12-04T06:52:52.433Z,90.69
2018-12-04T06:53:52.448Z,91.11
2018-12-04T06:54:52.472Z,91.26
2018-12-04T06:55:52.491Z,91.55
2018-12-04T06:56:52.509Z,90.64
2018-12-04T06:57:52.522Z,90.83
2018-12-04T06:58:52.535Z,89.97
2018-12-04T06:59:52.549Z,90.25
2018-12-04T07:00:52.573Z,91.21
2018-12-04T07:01:52.587Z,90.88
2018-12-04T07:02:52.641Z,91.21
2018-12-04T07:03:52.623Z,91.30
2018-12-04T07:04:52.638Z,90.69
2018-12-04T07:05:52.675Z,91.74
2018-12-04T07:06:52.669Z,92.41
2018-12-04T07:07:52.686Z,92.31
2018-12-04T07:08:52.711Z,93.55
2018-12-04T07:09:52.725Z,92.88
2018-12-04T07:10:52.734Z,92.50
2018-12-04T07:11:52.763Z,91.55
2018-12-04T07:12:52.775Z,92.02
2018-12-04T07:13:52.835Z,92.97
2018-12-04T07:14:52.806Z,93.17
2018-12-04T07:15:52.819Z,93.74
2018-12-04T07:16:52.844Z,93.07
2018-12-04T07:17:52.854Z,93.70
2018-12-04T07:18:52.873Z,94.07
2018-12-04T07:19:52.931Z,93.46
2018-12-04T07:20:52.902Z,92.41
2018-12-04T07:21:52.925Z,91.64
2018-12-04T07:22:52.941Z,91.55
2018-12-04T07:23:52.957Z,92.12
2018-12-04T07:24:52.989Z,92.31
2018-12-04T07:25:52.995Z,92.69
2018-12-04T07:26:53.022Z,91.64
2018-12-04T07:27:53.024Z,91.83
2018-12-04T07:28:53.055Z,91.36
2018-12-04T07:29:53.070Z,92.26
2018-12-04T07:30:53.159Z,92.50
2018-12-04T07:31:53.100Z,92.50
2018-12-04T07:32:53.112Z,92.50
2018-12-04T07:33:53.131Z,92.31
2018-12-04T07:34:53.155Z,91.26
2018-12-04T07:35:53.171Z,91.74
2018-12-04T07:36:53.203Z,91.55
2018-12-04T07:37:53.193Z,91.64
2018-12-04T07:38:53.211Z,91.26
2018-12-04T07:39:53.234Z,91.74
2018-12-04T07:40:53.244Z,92.55
2018-12-04T07:41:53.326Z,92.93
2018-12-04T07:42:53.285Z,92.93
2018-12-04T07:43:53.298Z,93.31
2018-12-04T07:44:53.313Z,93.02
2018-12-04T07:45:53.353Z,93.17
2018-12-04T07:46:53.346Z,93.02
2018-12-04T07:47:53.439Z,92.93
2018-12-04T07:48:53.400Z,93.41
2018-12-04T07:49:53.405Z,92.79
2018-12-04T07:50:53.416Z,92.41
2018-12-04T07:51:53.435Z,92.02
2018-12-04T07:52:53.452Z,91.74
2018-12-04T07:53:53.466Z,92.02
2018-12-04T07:54:53.633Z,91.55
2018-12-04T07:55:53.510Z,91.07
2018-12-04T07:56:53.522Z,90.21
2018-12-04T07:57:53.546Z,90.25
2018-12-04T07:58:53.569Z,89.73
2018-12-04T07:59:53.586Z,90.59
2018-12-04T08:00:53.599Z,90.40
2018-12-04T08:01:53.609Z,90.50
2018-12-04T08:02:53.623Z,90.31
2018-12-04T08:03:53.644Z,90.40
2018-12-04T08:04:53.661Z,91.07
2018-12-04T08:05:53.668Z,90.40
2018-12-04T08:06:53.689Z,90.40
2018-12-04T08:07:53.714Z,91.26
2018-12-04T08:08:53.735Z,91.55
2018-12-04T08:09:53.740Z,91.74
2018-12-04T08:10:53.754Z,91.45
2018-12-04T08:11:53.862Z,91.74
2018-12-04T08:12:53.785Z,92.17
2018-12-04T08:13:53.808Z,91.26
2018-12-04T08:14:53.835Z,91.26
2018-12-04T08:15:53.863Z,89.92
2018-12-04T08:16:53.861Z,90.88
2018-12-04T08:17:53.877Z,91.55
2018-12-04T08:18:53.893Z,90.78
2018-12-04T08:19:53.926Z,91.07
2018-12-04T08:20:53.935Z,91.07
2018-12-04T08:21:53.948Z,90.40
2018-12-04T08:22:53.973Z,89.68
2018-12-04T08:23:53.972Z,90.21
2018-12-04T08:24:53.993Z,90.21
2018-12-04T08:25:54.017Z,89.68
2018-12-04T08:26:54.027Z,89.49
2018-12-04T08:27:54.042Z,88.92
2018-12-04T08:28:54.121Z,89.20
2018-12-04T08:29:54.077Z,88.92
2018-12-04T08:30:54.100Z,88.25
2018-12-04T08:31:54.125Z,88.92
2018-12-04T08:32:54.135Z,90.16
2018-12-04T08:33:54.148Z,89.49
2018-12-04T08:34:54.167Z,89.39
2018-12-04T08:35:54.187Z,88.34
2018-12-04T08:36:54.209Z,89.01
2018-12-04T08:37:54.229Z,89.01
2018-12-04T08:38:54.244Z,89.11
2018-12-04T08:39:54.363Z,88.44
2018-12-04T08:40:54.292Z,88.15
2018-12-04T08:41:54.292Z,88.77
2018-12-04T08:42:54.322Z,88.44
2018-12-04T08:43:54.334Z,88.92
2018-12-04T08:44:54.348Z,89.30
2018-12-04T08:45:54.375Z,89.01
2018-12-04T08:46:54.382Z,88.25
2018-12-04T08:47:54.399Z,88.25
2018-12-04T08:48:54.425Z,89.25
2018-12-04T08:49:54.442Z,88.58
2018-12-04T08:50:54.621Z,88.10
2018-12-04T08:51:54.476Z,87.82
2018-12-04T08:52:54.495Z,87.91
2018-12-04T08:53:54.514Z,88.06
2018-12-04T08:54:54.529Z,88.29
2018-12-04T08:55:54.555Z,88.20
2018-12-04T08:56:54.573Z,86.67
2018-12-04T08:57:54.586Z,85.85
2018-12-04T08:58:54.605Z,85.18
2018-12-04T08:59:54.620Z,85.71
2018-12-04T09:00:54.640Z,86.57
2018-12-04T09:01:54.655Z,87.24
2018-12-04T09:02:54.673Z,87.05
2018-12-04T09:03:59.192Z,87.34
2018-12-04T09:04:54.711Z,87.34
2018-12-04T09:05:54.735Z,87.15
2018-12-04T09:06:54.815Z,86.96
2018-12-04T09:07:54.812Z,86.76
2018-12-04T09:08:54.796Z,86.47
2018-12-04T09:09:54.811Z,86.10
2018-12-04T09:10:54.825Z,85.81
2018-12-04T09:11:54.840Z,85.81
2018-12-04T09:12:54.858Z,85.42
2018-12-04T09:13:54.885Z,86.00
2018-12-04T09:14:54.898Z,86.10
2018-12-04T09:15:54.917Z,87.43
2018-12-04T09:16:54.942Z,87.48
2018-12-04T09:17:54.963Z,87.15
2018-12-04T09:18:55.071Z,86.76
2018-12-04T09:19:54.991Z,86.67
2018-12-04T09:20:55.027Z,86.57
2018-12-04T09:21:55.050Z,85.85
2018-12-04T09:22:55.042Z,84.99
2018-12-04T09:23:55.081Z,84.47
2018-12-04T09:24:55.079Z,84.85
2018-12-04T09:25:55.126Z,84.66
2018-12-04T09:26:55.122Z,85.52
2018-12-04T09:27:55.915Z,84.85
2018-12-04T09:28:55.150Z,84.95
2018-12-04T09:29:55.181Z,84.95
2018-12-04T09:30:55.194Z,84.85
2018-12-04T09:31:55.267Z,84.85
2018-12-04T09:32:55.222Z,85.90
2018-12-04T09:33:55.245Z,84.56
2018-12-04T09:34:55.261Z,84.85
2018-12-04T09:35:55.278Z,85.62
2018-12-04T09:36:55.308Z,84.95
2018-12-04T09:37:55.315Z,85.10
2018-12-04T09:38:55.337Z,85.86
2018-12-04T09:39:55.372Z,85.96
2018-12-04T09:40:55.371Z,85.86
2018-12-04T09:41:55.397Z,85.71
2018-12-04T09:42:55.403Z,85.71
2018-12-04T09:43:55.443Z,85.90
2018-12-04T09:44:55.458Z,84.85
2018-12-04T09:45:55.469Z,85.77
2018-12-04T09:46:55.511Z,86.24
2018-12-04T09:47:55.507Z,86.63
2018-12-04T09:48:55.535Z,86.43
2018-12-04T09:49:55.529Z,86.34
2018-12-04T09:50:55.549Z,86.24
2018-12-04T09:51:55.568Z,85.29
2018-12-04T09:52:55.593Z,85.77
2018-12-04T09:53:55.616Z,86.53
2018-12-04T09:54:55.640Z,86.05
2018-12-04T09:55:55.649Z,86.43
2018-12-04T09:56:55.666Z,87.10
2018-12-04T09:57:55.684Z,87.10
2018-12-04T09:58:55.697Z,86.34
2018-12-04T09:59:55.791Z,86.72
2018-12-04T10:00:55.734Z,86.30
2018-12-04T10:01:55.743Z,86.34
2018-12-04T10:02:55.771Z,86.63
2018-12-04T10:03:55.791Z,86.05
2018-12-04T10:04:55.803Z,86.63
2018-12-04T10:05:55.833Z,87.06
2018-12-04T10:06:55.838Z,86.20
2018-12-04T10:07:55.851Z,86.49
2018-12-04T10:08:55.875Z,86.58
2018-12-04T10:10:00.578Z,86.34
2018-12-04T10:10:55.969Z,86.34
2018-12-04T10:11:55.923Z,86.34
2018-12-04T10:12:55.972Z,85.77
2018-12-04T10:13:55.970Z,85.38
2018-12-04T10:14:55.993Z,85.77
2018-12-04T10:15:56.051Z,85.67
2018-12-04T10:16:56.029Z,84.91
2018-12-04T10:17:56.034Z,84.62
2018-12-04T10:18:56.053Z,85.29
2018-12-04T10:19:56.066Z,84.62
2018-12-04T10:20:56.090Z,85.38
2018-12-04T10:21:56.099Z,85.67
2018-12-04T10:22:56.120Z,86.05
2018-12-04T10:23:56.158Z,86.24
2018-12-04T10:24:56.152Z,85.86
2018-12-04T10:25:56.176Z,85.96
2018-12-04T10:26:56.191Z,85.67
2018-12-04T10:27:56.223Z,85.77
2018-12-04T10:28:56.222Z,85.86
2018-12-04T10:29:56.253Z,85.67
2018-12-04T10:30:56.262Z,85.58
2018-12-04T10:31:56.366Z,85.58
2018-12-04T10:32:56.311Z,85.29
2018-12-04T10:34:56.343Z,85.52
2018-12-04T10:35:56.351Z,85.81
2018-12-04T10:36:56.362Z,85.67
2018-12-04T10:37:56.393Z,85.05
2018-12-04T10:38:56.402Z,85.05
2018-12-04T10:39:56.432Z,85.24
2018-12-04T10:40:56.537Z,84.81
2018-12-04T10:41:56.455Z,85.77
2018-12-04T10:42:56.494Z,85.58
2018-12-04T10:43:56.486Z,85.67
2018-12-04T10:44:56.506Z,85.05
2018-12-04T10:45:56.533Z,85.10
2018-12-04T10:46:56.549Z,85.00
2018-12-04T10:47:56.564Z,85.19
2018-12-04T10:48:56.580Z,85.77
2018-12-04T10:49:56.601Z,86.15
2018-12-04T10:50:56.618Z,85.48
2018-12-04T10:51:56.672Z,85.67
2018-12-04T10:52:56.649Z,85.86
2018-12-04T10:53:56.667Z,86.05
2018-12-04T10:54:56.683Z,86.43
2018-12-04T10:55:56.728Z,85.86
2018-12-04T10:56:56.720Z,85.77
2018-12-04T10:57:56.743Z,85.48
2018-12-04T10:59:56.859Z,85.29
2018-12-04T11:00:56.795Z,85.38
2018-12-04T11:01:56.808Z,85.48
2018-12-04T11:02:56.828Z,85.29
2018-12-04T11:03:56.859Z,85.48
2018-12-04T11:04:56.865Z,84.91
2018-12-04T11:05:56.885Z,84.81
2018-12-04T11:06:56.916Z,84.81
2018-12-04T11:07:56.922Z,84.52
2018-12-04T11:08:57.038Z,84.14
2018-12-04T11:09:56.959Z,84.43
2018-12-04T11:10:56.976Z,84.23
2018-12-04T11:11:56.990Z,83.09
2018-12-04T11:12:57.008Z,83.28
2018-12-04T11:13:57.029Z,83.28
2018-12-04T11:14:57.039Z,82.90
2018-12-04T11:15:57.058Z,83.28
2018-12-04T11:16:57.086Z,83.28
2018-12-04T11:17:57.093Z,83.67
2018-12-04T11:18:57.113Z,84.33
2018-12-04T11:19:57.189Z,84.33
2018-12-04T11:20:57.148Z,83.28
2018-12-04T11:21:57.167Z,83.09
2018-12-04T11:22:57.189Z,83.00
2018-12-04T11:23:57.205Z,83.67
2018-12-04T11:24:57.215Z,83.09
2018-12-04T11:25:57.234Z,82.71
2018-12-04T11:26:57.256Z,83.38
2018-12-04T11:27:57.270Z,82.90
2018-12-04T11:28:57.286Z,83.47
2018-12-04T11:29:57.307Z,83.18
2018-12-04T11:30:57.324Z,83.86
2018-12-04T11:31:57.361Z,83.67
2018-12-04T11:32:57.385Z,83.00
2018-12-04T11:33:57.382Z,83.09
2018-12-04T11:34:57.393Z,83.67
2018-12-04T11:35:57.413Z,83.28
2018-12-04T11:36:57.450Z,82.90
2018-12-04T11:37:57.491Z,82.32
2018-12-04T11:38:57.475Z,82.42
2018-12-04T11:39:57.480Z,83.00
2018-12-04T11:40:57.497Z,83.00
2018-12-04T11:41:57.521Z,82.52
2018-12-04T11:42:57.533Z,81.95
2018-12-04T11:43:57.556Z,81.76
2018-12-04T11:44:57.575Z,81.66
2018-12-04T11:45:57.610Z,81.76
2018-12-04T11:46:57.651Z,82.42
2018-12-04T11:47:57.723Z,81.47
2018-12-04T11:48:57.643Z,81.47
2018-12-04T11:49:57.660Z,81.56
2018-12-04T11:51:00.116Z,82.42
2018-12-04T11:51:57.708Z,82.52
2018-12-04T11:52:57.762Z,83.00
2018-12-04T11:53:57.726Z,83.00
2018-12-04T11:54:57.750Z,82.81
2018-12-04T11:55:57.802Z,80.90
2018-12-04T11:56:57.786Z,81.09
2018-12-04T11:57:57.825Z,81.66
2018-12-04T11:58:57.879Z,82.14
2018-12-04T11:59:57.845Z,81.85
2018-12-04T12:00:57.955Z,81.95
2018-12-04T12:01:57.879Z,81.66
2018-12-04T12:02:57.896Z,81.47
2018-12-04T12:03:57.918Z,81.37
2018-12-04T12:04:57.978Z,81.47
2018-12-04T12:05:57.946Z,81.76
2018-12-04T12:06:57.965Z,81.76
2018-12-04T12:07:57.980Z,82.42
2018-12-04T12:08:58.003Z,81.85
2018-12-04T12:09:58.016Z,81.95
2018-12-04T12:10:58.042Z,81.85
2018-12-04T12:11:58.056Z,80.99
2018-12-04T12:12:58.067Z,80.13
2018-12-04T12:13:58.085Z,81.37
2018-12-04T12:14:58.104Z,81.85
2018-12-04T12:15:58.134Z,82.32
2018-12-04T12:16:58.143Z,82.04
2018-12-04T12:17:58.179Z,82.14
2018-12-04T12:18:58.176Z,82.14
2018-12-04T12:19:58.197Z,82.42
2018-12-04T12:20:58.224Z,82.71
2018-12-04T12:21:58.227Z,81.47
2018-12-04T12:22:58.244Z,81.95
2018-12-04T12:23:58.261Z,81.37
2018-12-04T12:24:58.286Z,81.09
2018-12-04T12:25:58.295Z,81.27
2018-12-04T12:26:58.314Z,80.51
2018-12-04T12:27:58.343Z,80.61
2018-12-04T12:28:58.489Z,80.13
2018-12-04T12:29:58.369Z,80.22
2018-12-04T12:30:58.398Z,79.56
2018-12-04T12:31:58.412Z,79.36
2018-12-04T12:32:58.430Z,79.08
2018-12-04T12:33:58.441Z,78.31
2018-12-04T12:34:58.453Z,78.31
2018-12-04T12:35:58.482Z,78.31
2018-12-04T12:36:58.498Z,77.94
2018-12-04T12:37:58.534Z,78.79
2018-12-04T12:38:58.528Z,79.08
2018-12-04T12:39:58.547Z,78.41
2018-12-04T12:40:58.561Z,78.31
2018-12-04T12:41:58.585Z,78.31
2018-12-04T12:42:58.634Z,78.22
2018-12-04T12:44:58.736Z,79.17
2018-12-04T12:45:58.733Z,79.56
2018-12-04T12:46:58.833Z,79.56
2018-12-04T12:47:58.747Z,79.56
2018-12-04T12:48:58.713Z,79.85
2018-12-04T12:49:58.867Z,79.94
2018-12-04T12:50:58.768Z,79.94
2018-12-04T12:51:58.785Z,79.75
2018-12-04T12:52:58.851Z,79.56
2018-12-04T12:53:58.792Z,79.41
2018-12-04T12:54:58.808Z,78.07
2018-12-04T12:55:58.824Z,77.40
2018-12-04T12:56:58.901Z,75.30
2018-12-04T12:57:58.871Z,75.30
2018-12-04T12:58:58.885Z,74.91
2018-12-04T12:59:58.900Z,75.30
2018-12-04T13:00:58.928Z,74.44
2018-12-04T13:01:58.932Z,74.05
2018-12-04T13:02:58.947Z,73.96
2018-12-04T13:03:58.974Z,74.05
2018-12-04T13:04:58.983Z,74.44
2018-12-04T13:05:59.003Z,74.24
2018-12-04T13:06:59.018Z,74.05
2018-12-04T13:07:59.052Z,74.44
2018-12-04T13:08:59.052Z,74.24
2018-12-04T13:09:59.078Z,74.53
2018-12-04T13:10:59.090Z,74.44
2018-12-04T13:11:59.104Z,74.15
2018-12-04T13:12:59.127Z,74.82
2018-12-04T13:13:59.157Z,74.82
2018-12-04T13:14:59.165Z,75.20
2018-12-04T13:15:59.189Z,75.01
2018-12-04T13:16:59.197Z,75.30
2018-12-04T13:17:59.210Z,76.06